Terminal Aerodrome Forecast
Issued by NWS

Home | Current Version | Previous Version | Text Only | Print | Product List | Glossary On
Versions: 1 2 3 4 5 6 7 8 9 10 11 12 13 14 15 16 17
000
FTUS42 KTAE 191120
TAFABY
TAF
KABY 191120Z 1912/2012 13005KT P6SM SCT006 OVC110
     FM191700 20013G20KT 2SM +TSRA SCT004 BKN020CB
     FM192000 21010KT P6SM OVC015
     FM200000 21011KT P6SM BKN250
     FM200300 19006KT P6SM OVC025=

USA.gov is the U.S. government's official web portal to all federal, state and local government web resources and services.